sensor_id;sensor_type;location;lat;lon;timestamp;temperature;humidity
5779;DHT22;2916;49.798;10.022;2023-07-30T00:01:21;19.60;99.90
5779;DHT22;2916;49.798;10.022;2023-07-30T00:03:49;19.60;99.90
5779;DHT22;2916;49.798;10.022;2023-07-30T00:06:18;19.70;99.90
5779;DHT22;2916;49.798;10.022;2023-07-30T00:08:45;19.60;99.90
5779;DHT22;2916;49.798;10.022;2023-07-30T00:11:12;19.70;99.90
5779;DHT22;2916;49.798;10.022;2023-07-30T00:13:39;19.60;99.90
5779;DHT22;2916;49.798;10.022;2023-07-30T00:16:06;19.60;99.90
5779;DHT22;2916;49.798;10.022;2023-07-30T00:18:34;19.60;99.90
5779;DHT22;2916;49.798;10.022;2023-07-30T00:21:01;19.70;99.90
5779;DHT22;2916;49.798;10.022;2023-07-30T00:23:29;19.60;99.90
5779;DHT22;2916;49.798;10.022;2023-07-30T00:25:56;19.60;99.90
5779;DHT22;2916;49.798;10.022;2023-07-30T00:28:23;19.50;99.90
5779;DHT22;2916;49.798;10.022;2023-07-30T00:30:50;19.40;99.90
5779;DHT22;2916;49.798;10.022;2023-07-30T00:33:17;19.30;99.90
5779;DHT22;2916;49.798;10.022;2023-07-30T00:35:45;19.20;99.90
5779;DHT22;2916;49.798;10.022;2023-07-30T00:38:12;19.10;99.90
5779;DHT22;2916;49.798;10.022;2023-07-30T00:40:42;19.10;99.90
5779;DHT22;2916;49.798;10.022;2023-07-30T00:43:10;18.90;99.90
5779;DHT22;2916;49.798;10.022;2023-07-30T00:45:40;18.90;99.90
5779;DHT22;2916;49.798;10.022;2023-07-30T00:48:10;18.90;99.90
5779;DHT22;2916;49.798;10.022;2023-07-30T00:50:38;19.00;99.90
5779;DHT22;2916;49.798;10.022;2023-07-30T00:53:07;19.00;99.90
5779;DHT22;2916;49.798;10.022;2023-07-30T00:55:36;18.90;99.90
5779;DHT22;2916;49.798;10.022;2023-07-30T00:58:05;18.80;99.90
5779;DHT22;2916;49.798;10.022;2023-07-30T01:00:32;18.80;99.90
5779;DHT22;2916;49.798;10.022;2023-07-30T01:03:00;18.80;99.90
5779;DHT22;2916;49.798;10.022;2023-07-30T01:05:27;18.90;99.90
5779;DHT22;2916;49.798;10.022;2023-07-30T01:07:54;18.80;99.90
5779;DHT22;2916;49.798;10.022;2023-07-30T01:10:22;18.80;99.90
5779;DHT22;2916;49.798;10.022;2023-07-30T01:12:50;18.80;99.90
5779;DHT22;2916;49.798;10.022;2023-07-30T01:15:23;18.80;99.90
5779;DHT22;2916;49.798;10.022;2023-07-30T01:17:50;18.70;99.90
5779;DHT22;2916;49.798;10.022;2023-07-30T01:20:18;18.70;99.90
5779;DHT22;2916;49.798;10.022;2023-07-30T01:22:46;18.70;99.90
5779;DHT22;2916;49.798;10.022;2023-07-30T01:25:14;18.60;99.90
5779;DHT22;2916;49.798;10.022;2023-07-30T01:27:46;18.60;99.90
5779;DHT22;2916;49.798;10.022;2023-07-30T01:30:21;18.50;99.90
5779;DHT22;2916;49.798;10.022;2023-07-30T01:32:52;18.50;99.90
5779;DHT22;2916;49.798;10.022;2023-07-30T01:35:21;18.50;99.90
5779;DHT22;2916;49.798;10.022;2023-07-30T01:37:53;18.40;99.90
5779;DHT22;2916;49.798;10.022;2023-07-30T01:40:21;18.40;99.90
5779;DHT22;2916;49.798;10.022;2023-07-30T01:42:49;18.30;99.90
5779;DHT22;2916;49.798;10.022;2023-07-30T01:45:17;18.20;99.90
5779;DHT22;2916;49.798;10.022;2023-07-30T01:47:44;18.20;99.90
5779;DHT22;2916;49.798;10.022;2023-07-30T01:50:11;18.20;99.90
5779;DHT22;2916;49.798;10.022;2023-07-30T01:52:38;18.20;99.90
5779;DHT22;2916;49.798;10.022;2023-07-30T01:55:08;18.20;99.90
5779;DHT22;2916;49.798;10.022;2023-07-30T01:57:35;18.10;99.90
5779;DHT22;2916;49.798;10.022;2023-07-30T02:00:03;18.10;99.90
5779;DHT22;2916;49.798;10.022;2023-07-30T02:02:31;18.10;99.90
5779;DHT22;2916;49.798;10.022;2023-07-30T02:04:58;18.10;99.90
5779;DHT22;2916;49.798;10.022;2023-07-30T02:07:25;18.10;99.90
5779;DHT22;2916;49.798;10.022;2023-07-30T02:09:52;18.10;99.90
5779;DHT22;2916;49.798;10.022;2023-07-30T02:12:21;18.00;99.90
5779;DHT22;2916;49.798;10.022;2023-07-30T02:14:48;18.10;99.90
5779;DHT22;2916;49.798;10.022;2023-07-30T02:17:15;18.00;99.90
5779;DHT22;2916;49.798;10.022;2023-07-30T02:19:43;18.00;99.90
5779;DHT22;2916;49.798;10.022;2023-07-30T02:22:10;18.00;99.90
5779;DHT22;2916;49.798;10.022;2023-07-30T02:24:37;18.00;99.90
5779;DHT22;2916;49.798;10.022;2023-07-30T02:27:05;18.00;99.90
5779;DHT22;2916;49.798;10.022;2023-07-30T02:29:33;18.00;99.90
5779;DHT22;2916;49.798;10.022;2023-07-30T02:32:00;18.00;99.90
5779;DHT22;2916;49.798;10.022;2023-07-30T02:34:27;18.00;99.90
5779;DHT22;2916;49.798;10.022;2023-07-30T02:36:55;17.90;99.90
5779;DHT22;2916;49.798;10.022;2023-07-30T02:39:22;17.90;99.90
5779;DHT22;2916;49.798;10.022;2023-07-30T02:41:49;17.90;99.90
5779;DHT22;2916;49.798;10.022;2023-07-30T02:44:16;17.90;99.90
5779;DHT22;2916;49.798;10.022;2023-07-30T02:46:45;18.00;99.90
5779;DHT22;2916;49.798;10.022;2023-07-30T02:49:12;18.00;99.90
5779;DHT22;2916;49.798;10.022;2023-07-30T02:51:39;18.00;99.90
5779;DHT22;2916;49.798;10.022;2023-07-30T02:54:07;18.00;99.90
5779;DHT22;2916;49.798;10.022;2023-07-30T02:56:35;18.00;99.90
5779;DHT22;2916;49.798;10.022;2023-07-30T02:59:02;18.10;99.90
5779;DHT22;2916;49.798;10.022;2023-07-30T03:01:29;18.10;99.90
5779;DHT22;2916;49.798;10.022;2023-07-30T03:03:57;18.00;99.90
5779;DHT22;2916;49.798;10.022;2023-07-30T03:06:25;18.00;99.90
5779;DHT22;2916;49.798;10.022;2023-07-30T03:08:52;18.00;99.90
5779;DHT22;2916;49.798;10.022;2023-07-30T03:11:19;18.00;99.90
5779;DHT22;2916;49.798;10.022;2023-07-30T03:13:46;18.00;99.90
5779;DHT22;2916;49.798;10.022;2023-07-30T03:16:13;18.00;99.90
5779;DHT22;2916;49.798;10.022;2023-07-30T03:18:40;18.00;99.90
5779;DHT22;2916;49.798;10.022;2023-07-30T03:21:09;18.00;99.90
5779;DHT22;2916;49.798;10.022;2023-07-30T03:23:36;18.00;99.90
5779;DHT22;2916;49.798;10.022;2023-07-30T03:26:03;18.00;99.90
5779;DHT22;2916;49.798;10.022;2023-07-30T03:28:30;18.00;99.90
5779;DHT22;2916;49.798;10.022;2023-07-30T03:30:57;18.00;99.90
5779;DHT22;2916;49.798;10.022;2023-07-30T03:33:24;18.00;99.90
5779;DHT22;2916;49.798;10.022;2023-07-30T03:35:52;18.00;99.90
5779;DHT22;2916;49.798;10.022;2023-07-30T03:38:20;18.00;99.90
5779;DHT22;2916;49.798;10.022;2023-07-30T03:40:47;18.00;99.90
5779;DHT22;2916;49.798;10.022;2023-07-30T03:43:14;18.00;99.90
5779;DHT22;2916;49.798;10.022;2023-07-30T03:45:41;18.10;99.90
5779;DHT22;2916;49.798;10.022;2023-07-30T03:48:09;18.10;99.90
5779;DHT22;2916;49.798;10.022;2023-07-30T03:50:36;18.10;99.90
5779;DHT22;2916;49.798;10.022;2023-07-30T03:53:03;18.10;99.90
5779;DHT22;2916;49.798;10.022;2023-07-30T03:55:31;18.10;99.90
5779;DHT22;2916;49.798;10.022;2023-07-30T03:57:59;18.10;99.90
5779;DHT22;2916;49.798;10.022;2023-07-30T04:00:26;18.10;99.90
5779;DHT22;2916;49.798;10.022;2023-07-30T04:02:54;18.10;99.90
5779;DHT22;2916;49.798;10.022;2023-07-30T04:05:22;18.20;99.90
5779;DHT22;2916;49.798;10.022;2023-07-30T04:07:49;18.10;99.90
5779;DHT22;2916;49.798;10.022;2023-07-30T04:10:16;18.20;99.90
5779;DHT22;2916;49.798;10.022;2023-07-30T04:12:45;18.20;99.90
5779;DHT22;2916;49.798;10.022;2023-07-30T04:15:12;18.20;99.90
5779;DHT22;2916;49.798;10.022;2023-07-30T04:17:39;18.20;99.90
5779;DHT22;2916;49.798;10.022;2023-07-30T04:20:07;18.20;99.90
5779;DHT22;2916;49.798;10.022;2023-07-30T04:22:35;18.20;99.90
5779;DHT22;2916;49.798;10.022;2023-07-30T04:25:04;18.20;99.90
5779;DHT22;2916;49.798;10.022;2023-07-30T04:27:32;18.20;99.90
5779;DHT22;2916;49.798;10.022;2023-07-30T04:30:01;18.20;99.90
5779;DHT22;2916;49.798;10.022;2023-07-30T04:32:28;18.20;99.90
5779;DHT22;2916;49.798;10.022;2023-07-30T04:34:56;18.30;99.90
5779;DHT22;2916;49.798;10.022;2023-07-30T04:37:23;18.20;99.90
5779;DHT22;2916;49.798;10.022;2023-07-30T04:39:50;18.30;99.90
5779;DHT22;2916;49.798;10.022;2023-07-30T04:42:17;18.30;99.90
5779;DHT22;2916;49.798;10.022;2023-07-30T04:44:44;18.30;99.90
5779;DHT22;2916;49.798;10.022;2023-07-30T04:47:13;18.30;99.90
5779;DHT22;2916;49.798;10.022;2023-07-30T04:49:40;18.30;99.90
5779;DHT22;2916;49.798;10.022;2023-07-30T04:52:07;18.30;99.90
5779;DHT22;2916;49.798;10.022;2023-07-30T04:54:35;18.30;99.90
5779;DHT22;2916;49.798;10.022;2023-07-30T04:57:02;18.40;99.90
5779;DHT22;2916;49.798;10.022;2023-07-30T04:59:29;18.30;99.90
5779;DHT22;2916;49.798;10.022;2023-07-30T05:01:59;18.30;99.90
5779;DHT22;2916;49.798;10.022;2023-07-30T05:04:27;18.30;99.90
5779;DHT22;2916;49.798;10.022;2023-07-30T05:06:54;18.30;99.90
5779;DHT22;2916;49.798;10.022;2023-07-30T05:09:21;18.30;99.90
5779;DHT22;2916;49.798;10.022;2023-07-30T05:11:49;18.50;99.90
5779;DHT22;2916;49.798;10.022;2023-07-30T05:14:16;18.80;99.90
5779;DHT22;2916;49.798;10.022;2023-07-30T05:16:43;19.30;99.90
5779;DHT22;2916;49.798;10.022;2023-07-30T05:19:10;19.90;99.90
5779;DHT22;2916;49.798;10.022;2023-07-30T05:21:39;20.60;99.90
5779;DHT22;2916;49.798;10.022;2023-07-30T05:24:07;21.00;99.90
5779;DHT22;2916;49.798;10.022;2023-07-30T05:26:34;21.50;99.90
5779;DHT22;2916;49.798;10.022;2023-07-30T05:29:02;21.80;99.90
5779;DHT22;2916;49.798;10.022;2023-07-30T05:31:29;22.50;99.90
5779;DHT22;2916;49.798;10.022;2023-07-30T05:33:56;22.30;99.90
5779;DHT22;2916;49.798;10.022;2023-07-30T05:36:24;23.00;99.90
5779;DHT22;2916;49.798;10.022;2023-07-30T05:38:52;22.50;99.90
5779;DHT22;2916;49.798;10.022;2023-07-30T05:41:19;22.20;99.90
5779;DHT22;2916;49.798;10.022;2023-07-30T05:43:47;21.90;99.90
5779;DHT22;2916;49.798;10.022;2023-07-30T05:46:14;21.70;99.90
5779;DHT22;2916;49.798;10.022;2023-07-30T05:48:42;21.60;99.90
5779;DHT22;2916;49.798;10.022;2023-07-30T05:51:09;21.40;99.90
5779;DHT22;2916;49.798;10.022;2023-07-30T05:53:36;21.30;99.90
5779;DHT22;2916;49.798;10.022;2023-07-30T05:56:04;21.10;99.90
5779;DHT22;2916;49.798;10.022;2023-07-30T05:58:31;21.00;99.90
5779;DHT22;2916;49.798;10.022;2023-07-30T06:00:59;20.70;99.90
5779;DHT22;2916;49.798;10.022;2023-07-30T06:03:26;20.80;99.90
5779;DHT22;2916;49.798;10.022;2023-07-30T06:05:53;20.70;99.90
5779;DHT22;2916;49.798;10.022;2023-07-30T06:08:20;20.40;99.90
5779;DHT22;2916;49.798;10.022;2023-07-30T06:10:47;20.40;99.90
5779;DHT22;2916;49.798;10.022;2023-07-30T06:13:16;20.10;99.90
5779;DHT22;2916;49.798;10.022;2023-07-30T06:15:43;19.90;99.90
5779;DHT22;2916;49.798;10.022;2023-07-30T06:18:10;19.90;99.90
5779;DHT22;2916;49.798;10.022;2023-07-30T06:20:37;20.10;99.90
5779;DHT22;2916;49.798;10.022;2023-07-30T06:23:04;20.10;99.90
5779;DHT22;2916;49.798;10.022;2023-07-30T06:25:31;20.30;99.90
5779;DHT22;2916;49.798;10.022;2023-07-30T06:27:59;20.30;99.90
5779;DHT22;2916;49.798;10.022;2023-07-30T06:30:27;20.40;99.90
5779;DHT22;2916;49.798;10.022;2023-07-30T06:32:55;20.40;99.90
5779;DHT22;2916;49.798;10.022;2023-07-30T06:35:22;20.60;99.90
5779;DHT22;2916;49.798;10.022;2023-07-30T06:37:50;20.40;99.90
5779;DHT22;2916;49.798;10.022;2023-07-30T06:40:18;20.60;99.90
5779;DHT22;2916;49.798;10.022;2023-07-30T06:42:45;20.70;99.90
5779;DHT22;2916;49.798;10.022;2023-07-30T06:45:12;20.60;99.90
5779;DHT22;2916;49.798;10.022;2023-07-30T06:47:40;20.60;99.90
5779;DHT22;2916;49.798;10.022;2023-07-30T06:50:08;20.40;99.90
5779;DHT22;2916;49.798;10.022;2023-07-30T06:52:35;20.50;99.90
5779;DHT22;2916;49.798;10.022;2023-07-30T06:55:02;20.40;99.90
5779;DHT22;2916;49.798;10.022;2023-07-30T06:57:30;20.50;99.90
5779;DHT22;2916;49.798;10.022;2023-07-30T06:59:57;20.50;99.90
5779;DHT22;2916;49.798;10.022;2023-07-30T07:02:25;20.40;99.90
5779;DHT22;2916;49.798;10.022;2023-07-30T07:04:55;20.30;99.90
5779;DHT22;2916;49.798;10.022;2023-07-30T07:07:22;20.50;99.90
5779;DHT22;2916;49.798;10.022;2023-07-30T07:09:49;20.50;99.90
5779;DHT22;2916;49.798;10.022;2023-07-30T07:12:16;20.70;99.90
5779;DHT22;2916;49.798;10.022;2023-07-30T07:14:43;20.80;99.90
5779;DHT22;2916;49.798;10.022;2023-07-30T07:17:11;21.00;99.90
5779;DHT22;2916;49.798;10.022;2023-07-30T07:19:38;21.30;99.90
5779;DHT22;2916;49.798;10.022;2023-07-30T07:22:07;21.50;99.90
5779;DHT22;2916;49.798;10.022;2023-07-30T07:24:34;21.50;99.90
5779;DHT22;2916;49.798;10.022;2023-07-30T07:27:01;21.60;99.90
5779;DHT22;2916;49.798;10.022;2023-07-30T07:29:28;21.70;99.90
5779;DHT22;2916;49.798;10.022;2023-07-30T07:31:55;21.60;99.90
5779;DHT22;2916;49.798;10.022;2023-07-30T07:34:23;21.80;99.90
5779;DHT22;2916;49.798;10.022;2023-07-30T07:36:50;21.90;99.90
5779;DHT22;2916;49.798;10.022;2023-07-30T07:39:18;22.00;99.90
5779;DHT22;2916;49.798;10.022;2023-07-30T07:41:46;22.00;99.90
5779;DHT22;2916;49.798;10.022;2023-07-30T07:44:13;22.50;99.90
5779;DHT22;2916;49.798;10.022;2023-07-30T07:46:40;23.20;99.90
5779;DHT22;2916;49.798;10.022;2023-07-30T07:49:07;23.80;99.90
5779;DHT22;2916;49.798;10.022;2023-07-30T07:51:35;23.80;86.90
5779;DHT22;2916;49.798;10.022;2023-07-30T07:54:02;23.40;96.20
5779;DHT22;2916;49.798;10.022;2023-07-30T07:56:31;24.00;91.30
5779;DHT22;2916;49.798;10.022;2023-07-30T07:58:58;24.30;97.30
5779;DHT22;2916;49.798;10.022;2023-07-30T08:01:25;25.10;61.20
5779;DHT22;2916;49.798;10.022;2023-07-30T08:03:53;24.90;36.10
5779;DHT22;2916;49.798;10.022;2023-07-30T08:06:20;25.00;48.10
5779;DHT22;2916;49.798;10.022;2023-07-30T08:08:47;25.20;19.50
5779;DHT22;2916;49.798;10.022;2023-07-30T08:11:14;24.50;19.90
5779;DHT22;2916;49.798;10.022;2023-07-30T08:13:42;25.40;26.00
5779;DHT22;2916;49.798;10.022;2023-07-30T08:16:11;26.10;5.70
5779;DHT22;2916;49.798;10.022;2023-07-30T08:18:38;26.40;9.20
5779;DHT22;2916;49.798;10.022;2023-07-30T08:21:05;26.00;1.00
5779;DHT22;2916;49.798;10.022;2023-07-30T08:23:33;26.40;7.60
5779;DHT22;2916;49.798;10.022;2023-07-30T08:26:00;26.60;1.00
5779;DHT22;2916;49.798;10.022;2023-07-30T08:28:27;26.30;1.00
5779;DHT22;2916;49.798;10.022;2023-07-30T08:31:01;26.20;1.00
5779;DHT22;2916;49.798;10.022;2023-07-30T08:33:28;25.90;1.00
5779;DHT22;2916;49.798;10.022;2023-07-30T08:35:56;25.90;1.00
5779;DHT22;2916;49.798;10.022;2023-07-30T08:38:23;26.00;1.00
5779;DHT22;2916;49.798;10.022;2023-07-30T08:40:50;26.70;1.00
5779;DHT22;2916;49.798;10.022;2023-07-30T08:43:18;26.50;1.00
5779;DHT22;2916;49.798;10.022;2023-07-30T08:45:46;26.50;1.00
5779;DHT22;2916;49.798;10.022;2023-07-30T08:48:14;26.30;1.00
5779;DHT22;2916;49.798;10.022;2023-07-30T08:50:44;25.90;1.00
5779;DHT22;2916;49.798;10.022;2023-07-30T08:53:13;26.00;1.00
5779;DHT22;2916;49.798;10.022;2023-07-30T08:55:41;25.90;1.00
5779;DHT22;2916;49.798;10.022;2023-07-30T08:58:09;25.80;1.00
5779;DHT22;2916;49.798;10.022;2023-07-30T09:00:38;25.30;1.00
5779;DHT22;2916;49.798;10.022;2023-07-30T09:03:08;25.30;1.00
5779;DHT22;2916;49.798;10.022;2023-07-30T09:05:39;25.10;1.00
5779;DHT22;2916;49.798;10.022;2023-07-30T09:08:06;24.60;1.00
5779;DHT22;2916;49.798;10.022;2023-07-30T09:10:36;24.60;1.00
5779;DHT22;2916;49.798;10.022;2023-07-30T09:13:03;24.30;1.00
5779;DHT22;2916;49.798;10.022;2023-07-30T09:15:31;24.20;1.00
5779;DHT22;2916;49.798;10.022;2023-07-30T09:17:59;24.00;1.00
5779;DHT22;2916;49.798;10.022;2023-07-30T09:20:27;23.80;1.00
5779;DHT22;2916;49.798;10.022;2023-07-30T09:22:58;23.40;1.00
5779;DHT22;2916;49.798;10.022;2023-07-30T09:25:25;23.60;1.00
5779;DHT22;2916;49.798;10.022;2023-07-30T09:27:53;23.40;1.00
5779;DHT22;2916;49.798;10.022;2023-07-30T09:30:24;23.20;1.00
5779;DHT22;2916;49.798;10.022;2023-07-30T09:32:54;23.10;1.00
5779;DHT22;2916;49.798;10.022;2023-07-30T09:35:23;22.90;1.00
5779;DHT22;2916;49.798;10.022;2023-07-30T09:37:59;22.80;7.90
5779;DHT22;2916;49.798;10.022;2023-07-30T09:40:32;22.60;18.90
5779;DHT22;2916;49.798;10.022;2023-07-30T09:43:02;22.30;24.40
5779;DHT22;2916;49.798;10.022;2023-07-30T09:45:33;22.10;25.90
5779;DHT22;2916;49.798;10.022;2023-07-30T09:48:03;21.90;35.30
5779;DHT22;2916;49.798;10.022;2023-07-30T09:50:32;21.40;88.60
5779;DHT22;2916;49.798;10.022;2023-07-30T09:53:02;21.00;99.90
5779;DHT22;2916;49.798;10.022;2023-07-30T09:55:30;20.70;99.90
5779;DHT22;2916;49.798;10.022;2023-07-30T09:57:57;20.50;99.90
5779;DHT22;2916;49.798;10.022;2023-07-30T10:00:25;20.60;99.90
5779;DHT22;2916;49.798;10.022;2023-07-30T10:02:55;20.50;99.90
5779;DHT22;2916;49.798;10.022;2023-07-30T10:05:29;20.50;99.90
5779;DHT22;2916;49.798;10.022;2023-07-30T10:08:05;20.50;99.90
5779;DHT22;2916;49.798;10.022;2023-07-30T10:10:37;20.60;99.90
5779;DHT22;2916;49.798;10.022;2023-07-30T10:13:07;20.80;99.90
5779;DHT22;2916;49.798;10.022;2023-07-30T10:15:38;20.90;99.90
5779;DHT22;2916;49.798;10.022;2023-07-30T10:18:05;20.90;99.90
5779;DHT22;2916;49.798;10.022;2023-07-30T10:20:33;20.90;99.90
5779;DHT22;2916;49.798;10.022;2023-07-30T10:23:04;20.90;99.90
5779;DHT22;2916;49.798;10.022;2023-07-30T10:25:42;20.70;99.90
5779;DHT22;2916;49.798;10.022;2023-07-30T10:28:27;20.80;99.90
5779;DHT22;2916;49.798;10.022;2023-07-30T10:30:59;21.00;99.90
5779;DHT22;2916;49.798;10.022;2023-07-30T10:33:44;21.00;99.90
5779;DHT22;2916;49.798;10.022;2023-07-30T10:36:14;21.20;99.90
5779;DHT22;2916;49.798;10.022;2023-07-30T10:38:45;21.50;99.90
5779;DHT22;2916;49.798;10.022;2023-07-30T10:41:13;21.90;99.90
5779;DHT22;2916;49.798;10.022;2023-07-30T10:43:43;22.20;99.90
5779;DHT22;2916;49.798;10.022;2023-07-30T10:46:16;22.30;99.90
5779;DHT22;2916;49.798;10.022;2023-07-30T10:48:45;22.30;99.90
5779;DHT22;2916;49.798;10.022;2023-07-30T10:51:15;22.60;99.90
5779;DHT22;2916;49.798;10.022;2023-07-30T10:53:45;22.50;92.40
5779;DHT22;2916;49.798;10.022;2023-07-30T10:56:13;22.90;98.90
5779;DHT22;2916;49.798;10.022;2023-07-30T10:58:43;23.00;88.80
5779;DHT22;2916;49.798;10.022;2023-07-30T11:01:15;23.50;94.70
5779;DHT22;2916;49.798;10.022;2023-07-30T11:03:42;23.60;74.00
5779;DHT22;2916;49.798;10.022;2023-07-30T11:06:09;23.40;57.00
5779;DHT22;2916;49.798;10.022;2023-07-30T11:08:38;23.80;70.50
5779;DHT22;2916;49.798;10.022;2023-07-30T11:11:09;24.00;24.70
5779;DHT22;2916;49.798;10.022;2023-07-30T11:13:37;23.80;26.40
5779;DHT22;2916;49.798;10.022;2023-07-30T11:16:07;24.00;33.80
5779;DHT22;2916;49.798;10.022;2023-07-30T11:18:34;24.50;26.30
5779;DHT22;2916;49.798;10.022;2023-07-30T11:21:03;24.20;25.50
5779;DHT22;2916;49.798;10.022;2023-07-30T11:23:32;24.50;19.10
5779;DHT22;2916;49.798;10.022;2023-07-30T11:26:01;24.90;17.20
5779;DHT22;2916;49.798;10.022;2023-07-30T11:28:33;25.00;11.10
5779;DHT22;2916;49.798;10.022;2023-07-30T11:31:02;24.90;3.80
5779;DHT22;2916;49.798;10.022;2023-07-30T11:33:32;25.30;1.00
5779;DHT22;2916;49.798;10.022;2023-07-30T11:36:01;25.40;1.00
5779;DHT22;2916;49.798;10.022;2023-07-30T11:38:30;25.60;1.00
5779;DHT22;2916;49.798;10.022;2023-07-30T11:40:59;25.00;1.00
5779;DHT22;2916;49.798;10.022;2023-07-30T11:43:27;24.70;1.00
5779;DHT22;2916;49.798;10.022;2023-07-30T11:46:10;24.30;1.00
5779;DHT22;2916;49.798;10.022;2023-07-30T11:48:41;23.90;1.00
5779;DHT22;2916;49.798;10.022;2023-07-30T11:51:19;23.80;1.00
5779;DHT22;2916;49.798;10.022;2023-07-30T11:53:49;24.10;1.00
5779;DHT22;2916;49.798;10.022;2023-07-30T11:56:22;23.80;1.00
5779;DHT22;2916;49.798;10.022;2023-07-30T11:58:53;23.70;1.00
5779;DHT22;2916;49.798;10.022;2023-07-30T12:01:24;23.80;1.00
5779;DHT22;2916;49.798;10.022;2023-07-30T12:03:54;24.20;1.00
5779;DHT22;2916;49.798;10.022;2023-07-30T12:06:22;24.50;1.00
5779;DHT22;2916;49.798;10.022;2023-07-30T12:08:49;24.50;1.00
5779;DHT22;2916;49.798;10.022;2023-07-30T12:11:18;24.20;1.00
5779;DHT22;2916;49.798;10.022;2023-07-30T12:13:46;24.40;1.00
5779;DHT22;2916;49.798;10.022;2023-07-30T12:16:16;24.30;1.00
5779;DHT22;2916;49.798;10.022;2023-07-30T12:18:45;24.60;1.00
5779;DHT22;2916;49.798;10.022;2023-07-30T12:21:12;24.90;1.00
5779;DHT22;2916;49.798;10.022;2023-07-30T12:23:39;24.90;1.00
5779;DHT22;2916;49.798;10.022;2023-07-30T12:26:06;24.90;1.00
5779;DHT22;2916;49.798;10.022;2023-07-30T12:28:33;24.80;1.00
5779;DHT22;2916;49.798;10.022;2023-07-30T12:31:00;24.60;1.00
5779;DHT22;2916;49.798;10.022;2023-07-30T12:33:28;24.30;1.00
5779;DHT22;2916;49.798;10.022;2023-07-30T12:35:56;24.40;1.00
5779;DHT22;2916;49.798;10.022;2023-07-30T12:38:23;24.80;1.00
5779;DHT22;2916;49.798;10.022;2023-07-30T12:40:50;24.70;1.00
5779;DHT22;2916;49.798;10.022;2023-07-30T12:43:18;24.50;1.00
5779;DHT22;2916;49.798;10.022;2023-07-30T12:45:46;24.30;1.00
5779;DHT22;2916;49.798;10.022;2023-07-30T12:48:14;24.30;1.00
5779;DHT22;2916;49.798;10.022;2023-07-30T12:50:41;24.30;1.00
5779;DHT22;2916;49.798;10.022;2023-07-30T12:53:09;24.20;1.00
5779;DHT22;2916;49.798;10.022;2023-07-30T12:55:36;24.30;1.00
5779;DHT22;2916;49.798;10.022;2023-07-30T12:58:05;24.60;1.00
5779;DHT22;2916;49.798;10.022;2023-07-30T13:00:33;24.50;1.00
5779;DHT22;2916;49.798;10.022;2023-07-30T13:03:01;24.50;1.00
5779;DHT22;2916;49.798;10.022;2023-07-30T13:05:28;24.50;1.00
5779;DHT22;2916;49.798;10.022;2023-07-30T13:07:55;24.60;1.00
5779;DHT22;2916;49.798;10.022;2023-07-30T13:10:24;24.50;1.00
5779;DHT22;2916;49.798;10.022;2023-07-30T13:12:51;24.70;1.00
5779;DHT22;2916;49.798;10.022;2023-07-30T13:15:18;24.60;1.00
5779;DHT22;2916;49.798;10.022;2023-07-30T13:17:45;24.40;1.00
5779;DHT22;2916;49.798;10.022;2023-07-30T13:20:13;24.20;1.00
5779;DHT22;2916;49.798;10.022;2023-07-30T13:22:40;24.30;1.00
5779;DHT22;2916;49.798;10.022;2023-07-30T13:25:07;24.40;1.00
5779;DHT22;2916;49.798;10.022;2023-07-30T13:27:36;24.50;1.00
5779;DHT22;2916;49.798;10.022;2023-07-30T13:30:03;24.50;1.00
5779;DHT22;2916;49.798;10.022;2023-07-30T13:32:31;24.30;1.00
5779;DHT22;2916;49.798;10.022;2023-07-30T13:34:58;24.20;1.00
5779;DHT22;2916;49.798;10.022;2023-07-30T13:37:25;24.30;1.00
5779;DHT22;2916;49.798;10.022;2023-07-30T13:39:53;24.30;1.00
5779;DHT22;2916;49.798;10.022;2023-07-30T13:42:20;24.30;1.00
5779;DHT22;2916;49.798;10.022;2023-07-30T13:44:48;24.20;1.00
5779;DHT22;2916;49.798;10.022;2023-07-30T13:47:15;24.50;1.00
5779;DHT22;2916;49.798;10.022;2023-07-30T13:49:42;24.40;1.00
5779;DHT22;2916;49.798;10.022;2023-07-30T13:52:09;24.30;1.00
5779;DHT22;2916;49.798;10.022;2023-07-30T13:54:37;24.40;1.00
5779;DHT22;2916;49.798;10.022;2023-07-30T13:57:04;24.50;1.00
5779;DHT22;2916;49.798;10.022;2023-07-30T13:59:32;24.50;1.00
5779;DHT22;2916;49.798;10.022;2023-07-30T14:02:00;24.30;1.00
5779;DHT22;2916;49.798;10.022;2023-07-30T14:04:27;24.10;1.00
5779;DHT22;2916;49.798;10.022;2023-07-30T14:06:54;23.90;1.00
5779;DHT22;2916;49.798;10.022;2023-07-30T14:09:21;24.00;1.00
5779;DHT22;2916;49.798;10.022;2023-07-30T14:11:50;24.00;1.00
5779;DHT22;2916;49.798;10.022;2023-07-30T14:14:17;24.00;1.00
5779;DHT22;2916;49.798;10.022;2023-07-30T14:16:48;23.90;1.00
5779;DHT22;2916;49.798;10.022;2023-07-30T14:19:17;23.50;1.00
5779;DHT22;2916;49.798;10.022;2023-07-30T14:21:44;23.60;1.00
5779;DHT22;2916;49.798;10.022;2023-07-30T14:24:11;23.60;1.00
5779;DHT22;2916;49.798;10.022;2023-07-30T14:26:39;23.60;1.00
5779;DHT22;2916;49.798;10.022;2023-07-30T14:29:06;23.70;1.00
5779;DHT22;2916;49.798;10.022;2023-07-30T14:31:33;23.50;1.00
5779;DHT22;2916;49.798;10.022;2023-07-30T14:34:01;23.40;1.00
5779;DHT22;2916;49.798;10.022;2023-07-30T14:36:29;23.40;1.00
5779;DHT22;2916;49.798;10.022;2023-07-30T14:38:56;23.30;1.00
5779;DHT22;2916;49.798;10.022;2023-07-30T14:41:23;23.30;1.00
5779;DHT22;2916;49.798;10.022;2023-07-30T14:43:50;23.20;1.00
5779;DHT22;2916;49.798;10.022;2023-07-30T14:46:18;23.10;1.00
5779;DHT22;2916;49.798;10.022;2023-07-30T14:48:45;23.30;1.00
5779;DHT22;2916;49.798;10.022;2023-07-30T14:51:12;23.40;1.00
5779;DHT22;2916;49.798;10.022;2023-07-30T14:53:40;23.50;1.00
5779;DHT22;2916;49.798;10.022;2023-07-30T14:56:08;23.20;1.00
5779;DHT22;2916;49.798;10.022;2023-07-30T14:58:38;23.20;1.00
5779;DHT22;2916;49.798;10.022;2023-07-30T15:01:05;23.30;1.00
5779;DHT22;2916;49.798;10.022;2023-07-30T15:03:32;23.30;1.00
5779;DHT22;2916;49.798;10.022;2023-07-30T15:05:59;23.60;1.00
5779;DHT22;2916;49.798;10.022;2023-07-30T15:08:26;23.30;1.00
5779;DHT22;2916;49.798;10.022;2023-07-30T15:10:56;23.00;1.00
5779;DHT22;2916;49.798;10.022;2023-07-30T15:13:23;23.20;1.00
5779;DHT22;2916;49.798;10.022;2023-07-30T15:15:51;23.20;1.00
5779;DHT22;2916;49.798;10.022;2023-07-30T15:18:18;23.20;1.00
5779;DHT22;2916;49.798;10.022;2023-07-30T15:20:46;23.20;1.00
5779;DHT22;2916;49.798;10.022;2023-07-30T15:23:14;23.30;1.00
5779;DHT22;2916;49.798;10.022;2023-07-30T15:25:42;23.30;1.00
5779;DHT22;2916;49.798;10.022;2023-07-30T15:28:10;23.60;1.00
5779;DHT22;2916;49.798;10.022;2023-07-30T15:30:38;23.50;1.00
5779;DHT22;2916;49.798;10.022;2023-07-30T15:33:09;23.40;1.00
5779;DHT22;2916;49.798;10.022;2023-07-30T15:35:36;23.40;1.00
5779;DHT22;2916;49.798;10.022;2023-07-30T15:38:05;23.20;1.00
5779;DHT22;2916;49.798;10.022;2023-07-30T15:40:33;23.10;1.00
5779;DHT22;2916;49.798;10.022;2023-07-30T15:43:00;23.20;1.00
5779;DHT22;2916;49.798;10.022;2023-07-30T15:45:30;23.20;1.00
5779;DHT22;2916;49.798;10.022;2023-07-30T15:47:57;23.20;1.00
5779;DHT22;2916;49.798;10.022;2023-07-30T15:50:25;23.10;1.00
5779;DHT22;2916;49.798;10.022;2023-07-30T15:52:53;23.10;1.00
5779;DHT22;2916;49.798;10.022;2023-07-30T15:55:20;23.10;1.00
5779;DHT22;2916;49.798;10.022;2023-07-30T15:57:47;23.00;1.00